createdAt,value
2017-09-05T00:02:08.253Z,5.70
2017-09-05T00:04:36.688Z,6.30
2017-09-05T00:07:04.936Z,6.10
2017-09-05T00:09:33.818Z,6.60
2017-09-05T00:12:04.760Z,6.70
2017-09-05T00:14:48.727Z,6.67
2017-09-05T00:17:32.167Z,5.77
2017-09-05T00:20:02.395Z,5.93
2017-09-05T00:22:31.299Z,7.03
2017-09-05T00:24:59.547Z,6.50
2017-09-05T00:27:28.080Z,6.13
2017-09-05T00:29:56.311Z,6.80
2017-09-05T00:32:25.219Z,5.47
2017-09-05T00:34:53.594Z,7.80
2017-09-05T00:37:21.852Z,6.13
2017-09-05T00:39:50.172Z,8.00
2017-09-05T00:42:18.569Z,6.00
2017-09-05T00:44:46.879Z,7.57
2017-09-05T00:47:15.141Z,5.90
2017-09-05T00:49:43.412Z,6.30
2017-09-05T00:52:11.838Z,5.60
2017-09-05T00:54:40.267Z,6.30
2017-09-05T00:57:08.528Z,7.30
2017-09-05T00:59:36.826Z,6.33
2017-09-05T01:02:05.819Z,6.03
2017-09-05T01:04:34.101Z,6.60
2017-09-05T01:07:02.402Z,6.43
2017-09-05T01:09:30.741Z,6.43
2017-09-05T01:11:59.017Z,5.90
2017-09-05T01:14:29.381Z,5.60
2017-09-05T01:16:57.671Z,5.93
2017-09-05T01:19:26.028Z,6.40
2017-09-05T01:21:54.333Z,5.33
2017-09-05T01:24:22.680Z,5.70
2017-09-05T01:26:50.921Z,5.80
2017-09-05T01:29:19.229Z,6.50
2017-09-05T01:31:47.587Z,5.53
2017-09-05T01:34:15.879Z,6.20
2017-09-05T01:39:40.509Z,5.47
2017-09-05T01:42:08.755Z,5.20
2017-09-05T01:44:37.984Z,4.93
2017-09-05T01:47:06.231Z,6.30
2017-09-05T01:49:34.496Z,5.60
2017-09-05T01:52:02.767Z,6.57
2017-09-05T01:54:31.005Z,6.13
2017-09-05T01:56:59.480Z,6.50
2017-09-05T01:59:27.853Z,6.37
2017-09-05T02:01:56.130Z,5.67
2017-09-05T02:04:24.404Z,5.93
2017-09-05T02:06:52.667Z,6.80
2017-09-05T02:09:21.066Z,7.00
2017-09-05T02:11:49.459Z,7.60
2017-09-05T02:14:18.064Z,6.60
2017-09-05T02:16:46.344Z,6.90
2017-09-05T02:19:15.234Z,6.60
2017-09-05T02:21:43.525Z,7.40
2017-09-05T02:24:11.892Z,7.10
2017-09-05T02:26:40.938Z,7.43
2017-09-05T02:29:09.224Z,7.40
2017-09-05T02:31:38.103Z,7.67
2017-09-05T02:34:06.429Z,7.80
2017-09-05T02:36:34.727Z,7.77
2017-09-05T02:39:02.982Z,7.10
2017-09-05T02:41:31.273Z,7.90
2017-09-05T02:43:59.752Z,8.30
2017-09-05T02:46:27.981Z,8.67
2017-09-05T02:48:56.256Z,7.30
2017-09-05T02:51:24.580Z,9.03
2017-09-05T02:53:52.820Z,7.93
2017-09-05T02:56:21.135Z,9.07
2017-09-05T02:58:49.407Z,6.77
2017-09-05T03:01:17.694Z,8.67
2017-09-05T03:03:47.032Z,8.77
2017-09-05T03:06:15.301Z,7.90
2017-09-05T03:08:43.594Z,8.93
2017-09-05T03:11:11.884Z,9.13
2017-09-05T03:13:40.713Z,9.07
2017-09-05T03:16:08.987Z,7.70
2017-09-05T03:18:37.239Z,8.90
2017-09-05T03:21:05.538Z,9.10
2017-09-05T03:23:33.839Z,9.27
2017-09-05T03:26:02.111Z,8.90
2017-09-05T03:28:31.369Z,7.10
2017-09-05T03:30:59.680Z,8.47
2017-09-05T03:33:27.935Z,8.70
2017-09-05T03:35:56.327Z,7.83
2017-09-05T03:38:29.326Z,7.20
2017-09-05T03:40:58.514Z,7.70
2017-09-05T03:43:26.756Z,8.37
2017-09-05T03:45:55.152Z,6.60
2017-09-05T03:48:25.268Z,7.93
2017-09-05T03:50:54.300Z,7.87
2017-09-05T03:53:24.106Z,7.77
2017-09-05T03:55:52.448Z,7.47
2017-09-05T03:58:20.793Z,7.73
2017-09-05T04:00:49.061Z,8.40
2017-09-05T04:03:17.360Z,8.90
2017-09-05T04:05:45.620Z,7.90
2017-09-05T04:08:13.884Z,8.70
2017-09-05T04:10:42.166Z,7.90
2017-09-05T04:13:10.548Z,8.30
2017-09-05T04:15:38.968Z,7.73
2017-09-05T04:18:07.187Z,8.37
2017-09-05T04:20:35.436Z,8.63
2017-09-05T04:23:04.031Z,8.67
2017-09-05T04:25:33.734Z,8.37
2017-09-05T04:28:02.145Z,8.83
2017-09-05T04:30:30.385Z,7.87
2017-09-05T04:32:59.647Z,8.80
2017-09-05T04:35:27.931Z,7.87
2017-09-05T04:37:56.191Z,7.90
2017-09-05T04:40:26.717Z,8.73
2017-09-05T04:42:54.964Z,8.17
2017-09-05T04:45:23.327Z,8.10
2017-09-05T04:47:56.671Z,7.67
2017-09-05T04:50:25.070Z,7.17
2017-09-05T04:52:53.312Z,8.30
2017-09-05T04:55:23.141Z,8.33
2017-09-05T04:57:52.210Z,8.47
2017-09-05T05:00:21.429Z,9.10
2017-09-05T05:02:51.286Z,7.87
2017-09-05T05:05:19.680Z,8.90
2017-09-05T05:07:47.940Z,8.20
2017-09-05T05:10:16.324Z,7.90
2017-09-05T05:12:44.611Z,8.50
2017-09-05T05:15:12.919Z,8.10
2017-09-05T05:17:41.941Z,8.40
2017-09-05T05:20:12.011Z,8.80
2017-09-05T05:22:40.396Z,8.47
2017-09-05T05:27:44.322Z,9.60
2017-09-05T05:30:14.375Z,9.50
2017-09-05T05:32:42.775Z,8.80
2017-09-05T05:35:12.591Z,8.43
2017-09-05T05:37:40.820Z,8.77
2017-09-05T05:40:10.266Z,9.47
2017-09-05T05:42:40.331Z,8.90
2017-09-05T05:45:09.210Z,11.10
2017-09-05T05:47:37.478Z,9.53
2017-09-05T05:50:05.983Z,8.77
2017-09-05T05:52:34.423Z,9.10
2017-09-05T05:55:03.492Z,8.10
2017-09-05T05:57:31.923Z,8.87
2017-09-05T06:00:00.237Z,8.03
2017-09-05T06:02:28.488Z,8.77
2017-09-05T06:04:57.431Z,8.43
2017-09-05T06:07:25.660Z,7.57
2017-09-05T06:09:54.923Z,7.13
2017-09-05T06:12:26.203Z,8.33
2017-09-05T06:14:55.308Z,7.97
2017-09-05T06:17:24.512Z,7.50
2017-09-05T06:19:55.552Z,7.83
2017-09-05T06:22:23.908Z,6.80
2017-09-05T06:24:52.200Z,6.73
2017-09-05T06:27:21.350Z,6.70
2017-09-05T06:29:49.607Z,7.33
2017-09-05T06:32:19.651Z,7.23
2017-09-05T06:34:48.909Z,7.27
2017-09-05T06:37:17.163Z,8.10
2017-09-05T06:39:46.349Z,7.50
2017-09-05T06:42:14.608Z,7.47
2017-09-05T06:44:42.895Z,7.30
2017-09-05T06:47:12.262Z,6.90
2017-09-05T06:49:40.519Z,6.37
2017-09-05T06:52:08.779Z,6.43
2017-09-05T06:54:37.791Z,7.03
2017-09-05T06:57:06.131Z,6.60
2017-09-05T06:59:34.387Z,6.30
2017-09-05T07:02:03.511Z,6.43
2017-09-05T07:04:31.748Z,6.77
2017-09-05T07:07:01.883Z,6.00
2017-09-05T07:09:30.167Z,6.00
2017-09-05T07:11:58.423Z,5.47
2017-09-05T07:14:26.654Z,9.13
2017-09-05T07:16:54.917Z,5.30
2017-09-05T07:19:23.283Z,6.37
2017-09-05T07:21:51.527Z,5.27
2017-09-05T07:24:19.848Z,5.57
2017-09-05T07:26:48.092Z,5.87
2017-09-05T07:29:16.401Z,5.43
2017-09-05T07:31:44.761Z,6.07
2017-09-05T07:34:13.023Z,5.07
2017-09-05T07:36:41.342Z,5.10
2017-09-05T07:39:09.649Z,5.50
2017-09-05T07:41:38.195Z,5.30
2017-09-05T07:44:07.510Z,5.43
2017-09-05T07:46:35.764Z,6.53
2017-09-05T07:49:04.036Z,5.10
2017-09-05T07:51:32.295Z,4.80
2017-09-05T07:54:01.364Z,5.07
2017-09-05T07:56:29.633Z,4.93
2017-09-05T07:58:58.090Z,4.57
2017-09-05T08:01:26.494Z,5.33
2017-09-05T08:03:54.970Z,4.30
2017-09-05T08:06:26.534Z,4.30
2017-09-05T08:08:54.964Z,4.40
2017-09-05T08:11:23.452Z,4.83
2017-09-05T08:13:52.546Z,5.00
2017-09-05T08:16:20.838Z,4.10
2017-09-05T08:18:49.108Z,4.17
2017-09-05T08:21:17.551Z,3.60
2017-09-05T08:23:46.842Z,3.83
2017-09-05T08:26:15.137Z,4.27
2017-09-05T08:28:43.402Z,4.60
2017-09-05T08:31:11.695Z,4.23
2017-09-05T08:33:40.843Z,4.13
2017-09-05T08:36:09.295Z,4.33
2017-09-05T08:38:37.642Z,4.13
2017-09-05T08:41:05.944Z,3.57
2017-09-05T08:43:35.172Z,4.33
2017-09-05T08:46:04.254Z,4.40
2017-09-05T08:48:32.526Z,4.40
2017-09-05T08:51:00.872Z,3.40
2017-09-05T08:53:29.137Z,10.10
2017-09-05T08:55:57.423Z,4.00
2017-09-05T08:58:25.718Z,3.10
2017-09-05T09:00:54.017Z,2.80
2017-09-05T09:03:23.055Z,3.43
2017-09-05T09:05:52.205Z,2.87
2017-09-05T09:08:21.356Z,3.30
2017-09-05T09:10:49.736Z,3.20
2017-09-05T09:13:17.943Z,2.83
2017-09-05T09:15:46.249Z,3.33
2017-09-05T09:18:14.488Z,3.00
2017-09-05T09:20:42.769Z,3.17
2017-09-05T09:23:11.117Z,3.57
2017-09-05T09:25:39.417Z,3.33
2017-09-05T09:28:07.682Z,3.30
2017-09-05T09:30:37.693Z,3.50
2017-09-05T09:33:06.786Z,3.37
2017-09-05T09:35:36.206Z,2.90
2017-09-05T09:38:04.522Z,3.20
2017-09-05T09:40:32.878Z,2.73
2017-09-05T09:43:01.139Z,4.00
2017-09-05T09:45:29.447Z,3.60
2017-09-05T09:47:57.772Z,3.33
2017-09-05T09:50:26.009Z,3.97
2017-09-05T09:52:54.259Z,3.13
2017-09-05T09:55:22.535Z,3.83
2017-09-05T09:57:53.762Z,3.57
2017-09-05T10:00:22.000Z,3.90
2017-09-05T10:02:51.205Z,4.00
2017-09-05T10:05:19.512Z,3.90
2017-09-05T10:07:48.151Z,3.73
2017-09-05T10:10:16.831Z,3.40
2017-09-05T10:12:46.810Z,3.30
2017-09-05T10:15:15.105Z,3.80
2017-09-05T10:17:44.357Z,3.20
2017-09-05T10:20:12.643Z,3.77
2017-09-05T10:22:40.908Z,3.10
2017-09-05T10:25:10.158Z,2.70
2017-09-05T10:27:39.314Z,3.37
2017-09-05T10:30:08.704Z,2.70
2017-09-05T10:32:36.952Z,2.97
2017-09-05T10:35:05.227Z,3.37
2017-09-05T10:37:33.490Z,3.13
2017-09-05T10:40:02.880Z,2.73
2017-09-05T10:42:31.127Z,2.50
2017-09-05T10:45:01.316Z,2.80
2017-09-05T10:47:31.284Z,2.07
2017-09-05T10:50:00.042Z,2.27
2017-09-05T10:52:28.275Z,2.73
2017-09-05T10:54:56.552Z,3.03
2017-09-05T10:57:25.853Z,1.97
2017-09-05T10:59:54.331Z,2.73
2017-09-05T11:02:23.586Z,1.77
2017-09-05T11:04:51.864Z,2.80
2017-09-05T11:07:20.256Z,2.23
2017-09-05T11:09:48.609Z,1.83
2017-09-05T11:12:17.348Z,2.30
2017-09-05T11:14:45.734Z,2.57
2017-09-05T11:17:13.988Z,2.27
2017-09-05T11:19:42.244Z,2.70
2017-09-05T11:22:11.373Z,2.53
2017-09-05T11:24:40.503Z,2.47
2017-09-05T11:27:09.160Z,2.10
2017-09-05T11:29:38.216Z,2.80
2017-09-05T11:32:07.352Z,2.10
2017-09-05T11:34:36.883Z,2.90
2017-09-05T11:37:06.194Z,2.90
2017-09-05T11:39:35.552Z,2.20
2017-09-05T11:42:03.830Z,2.07
2017-09-05T11:44:32.105Z,2.10
2017-09-05T11:47:00.638Z,2.40
2017-09-05T11:49:29.982Z,2.20
2017-09-05T11:51:59.077Z,1.57
2017-09-05T11:54:27.332Z,1.80
2017-09-05T11:56:55.616Z,2.30
2017-09-05T11:59:24.025Z,1.23
2017-09-05T12:01:52.298Z,1.60
2017-09-05T12:04:20.608Z,1.53
2017-09-05T12:06:50.006Z,1.60
2017-09-05T12:09:18.360Z,2.07
2017-09-05T12:11:47.506Z,1.50
2017-09-05T12:14:15.815Z,1.60
2017-09-05T12:16:44.815Z,1.40
2017-09-05T12:19:13.855Z,1.33
2017-09-05T12:24:16.435Z,1.10
2017-09-05T12:26:44.764Z,1.60
2017-09-05T12:29:13.037Z,1.73
2017-09-05T12:31:42.099Z,1.60
2017-09-05T12:34:10.434Z,1.47
2017-09-05T12:36:38.743Z,1.40
2017-09-05T12:39:07.841Z,2.03
2017-09-05T12:41:36.130Z,1.90
2017-09-05T12:44:04.452Z,2.10
2017-09-05T12:46:33.684Z,2.03
2017-09-05T12:49:01.982Z,1.80
2017-09-05T12:51:30.302Z,2.00
2017-09-05T12:53:58.561Z,2.60
2017-09-05T12:56:27.694Z,1.40
2017-09-05T12:58:55.945Z,2.30
2017-09-05T13:01:24.190Z,2.00
2017-09-05T13:03:53.384Z,1.60
2017-09-05T13:06:21.653Z,1.90
2017-09-05T13:08:50.818Z,1.97
2017-09-05T13:11:19.081Z,1.93
2017-09-05T13:13:48.289Z,2.50
2017-09-05T13:16:16.689Z,2.20
2017-09-05T13:18:44.979Z,2.63
2017-09-05T13:21:13.454Z,1.80
2017-09-05T13:23:42.009Z,2.37
2017-09-05T13:26:10.279Z,2.10
2017-09-05T13:28:38.587Z,2.50
2017-09-05T13:31:07.098Z,2.50
2017-09-05T13:33:35.334Z,1.73
2017-09-05T13:36:04.405Z,2.40
2017-09-05T13:38:33.860Z,2.13
2017-09-05T13:41:03.341Z,2.10
2017-09-05T13:43:31.829Z,2.10
2017-09-05T13:46:00.119Z,3.70
2017-09-05T13:48:28.359Z,2.40
2017-09-05T13:50:56.727Z,2.23
2017-09-05T13:53:25.161Z,1.83
2017-09-05T13:55:54.335Z,2.77
2017-09-05T13:58:22.591Z,1.87
2017-09-05T14:00:51.968Z,1.90
2017-09-05T14:03:21.092Z,1.70
2017-09-05T14:05:49.413Z,3.87
2017-09-05T14:08:17.690Z,2.73
2017-09-05T14:10:46.887Z,2.57
2017-09-05T14:13:15.241Z,2.10
2017-09-05T14:15:44.601Z,2.17
2017-09-05T14:18:12.953Z,1.60
2017-09-05T14:20:42.248Z,2.53
2017-09-05T14:23:11.549Z,2.10
2017-09-05T14:28:44.055Z,2.27
2017-09-05T14:31:12.450Z,1.70
2017-09-05T14:33:41.728Z,2.33
2017-09-05T14:36:10.161Z,1.97
2017-09-05T14:38:40.402Z,2.27
2017-09-05T14:41:08.740Z,2.00
2017-09-05T14:43:37.049Z,2.30
2017-09-05T14:46:06.274Z,2.10
2017-09-05T14:48:34.577Z,2.73
2017-09-05T14:51:05.824Z,2.30
2017-09-05T14:53:34.098Z,2.10
2017-09-05T14:56:04.479Z,1.80
2017-09-05T14:58:32.728Z,2.80
2017-09-05T15:01:02.786Z,2.60
2017-09-05T15:03:31.182Z,2.43
2017-09-05T15:05:59.608Z,2.17
2017-09-05T15:08:28.032Z,2.23
2017-09-05T15:10:56.408Z,2.37
2017-09-05T15:13:25.710Z,3.43
2017-09-05T15:15:54.012Z,2.53
2017-09-05T15:18:22.314Z,2.53
2017-09-05T15:20:51.554Z,2.80
2017-09-05T15:23:20.032Z,3.00
2017-09-05T15:25:48.381Z,2.90
2017-09-05T15:28:17.372Z,2.93
2017-09-05T15:30:46.040Z,2.97
2017-09-05T15:33:17.207Z,2.83
2017-09-05T15:35:48.015Z,2.87
2017-09-05T15:38:17.140Z,3.10
2017-09-05T15:40:46.390Z,2.70
2017-09-05T15:43:15.262Z,2.80
2017-09-05T15:45:44.550Z,2.50
2017-09-05T15:48:12.881Z,2.60
2017-09-05T15:50:42.029Z,2.23
2017-09-05T15:53:10.902Z,2.80
2017-09-05T15:55:39.162Z,2.77
2017-09-05T15:58:08.458Z,2.30
2017-09-05T16:00:36.779Z,2.90
2017-09-05T16:03:10.064Z,3.10
2017-09-05T16:05:38.376Z,2.83
2017-09-05T16:08:07.499Z,2.60
2017-09-05T16:10:35.910Z,2.77
2017-09-05T16:13:04.203Z,2.70
2017-09-05T16:15:33.377Z,2.57
2017-09-05T16:18:01.703Z,2.70
2017-09-05T16:20:30.019Z,2.63
2017-09-05T16:22:58.435Z,2.40
2017-09-05T16:25:27.693Z,2.87
2017-09-05T16:27:56.744Z,2.20
2017-09-05T16:30:25.115Z,2.47
2017-09-05T16:32:53.444Z,2.73
2017-09-05T16:35:21.775Z,2.53
2017-09-05T16:37:50.118Z,2.10
2017-09-05T16:40:18.487Z,2.13
2017-09-05T16:42:46.793Z,2.47
2017-09-05T16:45:15.071Z,2.50
2017-09-05T16:47:43.402Z,2.63
2017-09-05T16:50:12.682Z,2.23
2017-09-05T16:52:41.757Z,2.70
2017-09-05T16:55:10.071Z,1.90
2017-09-05T16:57:38.380Z,1.93
2017-09-05T17:00:06.821Z,1.83
2017-09-05T17:02:35.352Z,1.77
2017-09-05T17:05:03.711Z,2.40
2017-09-05T17:07:32.053Z,2.20
2017-09-05T17:10:00.452Z,2.20
2017-09-05T17:12:28.759Z,3.60
2017-09-05T17:14:57.937Z,7.93
2017-09-05T17:17:27.456Z,3.13
2017-09-05T17:19:56.022Z,2.93
2017-09-05T17:22:24.363Z,2.63
2017-09-05T17:24:52.669Z,3.40
2017-09-05T17:27:21.016Z,2.60
2017-09-05T17:29:49.442Z,2.53
2017-09-05T17:32:17.728Z,2.73
2017-09-05T17:34:46.166Z,3.70
2017-09-05T17:37:14.970Z,3.30
2017-09-05T17:39:43.507Z,2.53
2017-09-05T17:42:11.870Z,2.20
2017-09-05T17:44:41.133Z,2.20
2017-09-05T17:47:09.483Z,2.63
2017-09-05T17:49:39.710Z,3.43
2017-09-05T17:52:08.809Z,2.57
2017-09-05T17:54:37.274Z,2.73
2017-09-05T17:57:05.640Z,2.10
2017-09-05T17:59:34.034Z,2.40
2017-09-05T18:02:03.928Z,2.30
2017-09-05T18:04:32.242Z,2.00
2017-09-05T18:07:00.612Z,2.03
2017-09-05T18:09:29.034Z,2.00
2017-09-05T18:11:57.530Z,1.60
2017-09-05T18:14:25.871Z,2.43
2017-09-05T18:16:54.292Z,2.23
2017-09-05T18:19:22.874Z,2.00
2017-09-05T18:21:52.000Z,2.13
2017-09-05T18:24:22.320Z,2.40
2017-09-05T18:26:51.285Z,2.43
2017-09-05T18:29:21.932Z,2.33
2017-09-05T18:31:52.313Z,2.50
2017-09-05T18:34:21.739Z,1.80
2017-09-05T18:36:52.672Z,2.33
2017-09-05T18:39:22.678Z,2.27
2017-09-05T18:41:55.811Z,2.57
2017-09-05T18:44:25.149Z,2.40
2017-09-05T18:46:58.108Z,2.23
2017-09-05T18:49:27.699Z,2.87
2017-09-05T18:52:01.501Z,2.60
2017-09-05T18:54:31.492Z,2.50
2017-09-05T18:57:03.178Z,2.73
2017-09-05T18:59:34.250Z,3.30
2017-09-05T19:02:06.812Z,2.53
2017-09-05T19:04:38.535Z,2.57
2017-09-05T19:07:07.593Z,2.60
2017-09-05T19:09:38.055Z,2.47
2017-09-05T19:12:07.166Z,2.40
2017-09-05T19:14:39.284Z,2.93
2017-09-05T19:17:07.906Z,2.97
2017-09-05T19:19:37.912Z,3.93
2017-09-05T19:22:06.787Z,2.50
2017-09-05T19:24:35.223Z,3.23
2017-09-05T19:27:03.670Z,3.80
2017-09-05T19:29:33.340Z,3.70
2017-09-05T19:32:02.501Z,2.70
2017-09-05T19:34:31.633Z,3.07
2017-09-05T19:37:00.042Z,3.07
2017-09-05T19:39:29.920Z,3.17
2017-09-05T19:41:58.780Z,3.13
2017-09-05T19:44:28.945Z,3.13
2017-09-05T19:46:58.754Z,2.90
2017-09-05T19:49:29.566Z,2.90
2017-09-05T19:52:00.307Z,3.47
2017-09-05T19:54:29.805Z,3.07
2017-09-05T19:57:00.656Z,3.83
2017-09-05T19:59:29.034Z,4.17
2017-09-05T20:02:00.084Z,3.20
2017-09-05T20:04:28.574Z,3.80
2017-09-05T20:06:56.982Z,3.60
2017-09-05T20:09:25.966Z,3.53
2017-09-05T20:11:54.824Z,3.07
2017-09-05T20:14:23.559Z,3.20
2017-09-05T20:16:51.863Z,3.30
2017-09-05T20:19:20.357Z,3.13
2017-09-05T20:21:48.790Z,3.83
2017-09-05T20:24:18.592Z,4.30
2017-09-05T20:26:47.809Z,4.13
2017-09-05T20:29:16.486Z,3.80
2017-09-05T20:31:44.844Z,4.10
2017-09-05T20:34:14.388Z,3.60
2017-09-05T20:36:45.061Z,4.60
2017-09-05T20:39:14.929Z,4.30
2017-09-05T20:41:46.571Z,4.10
2017-09-05T20:44:14.982Z,4.37
2017-09-05T20:46:43.292Z,5.10
2017-09-05T20:49:13.533Z,5.77
2017-09-05T20:51:41.828Z,5.57
2017-09-05T20:54:10.233Z,5.90
2017-09-05T20:56:39.384Z,7.50
2017-09-05T20:59:07.678Z,7.07
2017-09-05T21:01:35.980Z,4.87
2017-09-05T21:04:04.289Z,4.40
2017-09-05T21:06:33.242Z,4.83
2017-09-05T21:09:01.779Z,3.87
2017-09-05T21:11:30.406Z,4.60
2017-09-05T21:13:58.857Z,3.87
2017-09-05T21:16:27.997Z,3.67
2017-09-05T21:18:56.264Z,4.03
2017-09-05T21:21:24.660Z,3.87
2017-09-05T21:23:52.951Z,4.10
2017-09-05T21:26:21.337Z,4.50
2017-09-05T21:28:49.568Z,4.53
2017-09-05T21:31:18.015Z,4.27
2017-09-05T21:33:46.448Z,3.73
2017-09-05T21:36:14.763Z,4.20
2017-09-05T21:38:43.113Z,3.97
2017-09-05T21:41:11.376Z,4.40
2017-09-05T21:43:39.693Z,4.77
2017-09-05T21:46:08.694Z,4.00
2017-09-05T21:48:36.953Z,5.53
2017-09-05T21:51:05.244Z,5.03
2017-09-05T21:53:34.379Z,4.70
2017-09-05T21:56:02.683Z,5.30
2017-09-05T21:58:31.921Z,5.17
2017-09-05T22:01:00.219Z,4.10
2017-09-05T22:03:29.474Z,4.80
2017-09-05T22:05:58.614Z,5.33
2017-09-05T22:08:27.820Z,4.87
2017-09-05T22:10:56.055Z,5.13
2017-09-05T22:13:24.339Z,5.67
2017-09-05T22:15:53.571Z,5.00
2017-09-05T22:18:27.518Z,4.97
2017-09-05T22:21:01.387Z,4.73
2017-09-05T22:23:29.668Z,3.90
2017-09-05T22:26:04.440Z,3.90
2017-09-05T22:28:38.384Z,3.60
2017-09-05T22:31:06.721Z,3.30
2017-09-05T22:33:35.035Z,4.57
2017-09-05T22:36:03.304Z,2.40
2017-09-05T22:38:31.580Z,3.10
2017-09-05T22:40:59.884Z,3.30
2017-09-05T22:43:28.179Z,2.90
2017-09-05T22:45:56.882Z,2.53
2017-09-05T22:48:25.145Z,3.17
2017-09-05T22:50:53.423Z,2.80
2017-09-05T22:53:21.793Z,2.40
2017-09-05T22:55:50.099Z,3.30
2017-09-05T22:58:18.435Z,3.17
2017-09-05T23:00:48.520Z,2.90
2017-09-05T23:03:16.749Z,2.93
2017-09-05T23:05:45.084Z,2.37
2017-09-05T23:08:13.329Z,2.77
2017-09-05T23:10:41.592Z,2.60
2017-09-05T23:13:11.134Z,2.77
2017-09-05T23:15:39.416Z,2.63
2017-09-05T23:18:07.636Z,2.53
2017-09-05T23:20:38.869Z,2.67
2017-09-05T23:23:07.125Z,2.60
2017-09-05T23:25:35.451Z,2.10
2017-09-05T23:28:03.702Z,2.60
2017-09-05T23:30:31.978Z,2.67
2017-09-05T23:33:00.309Z,2.30
2017-09-05T23:35:28.562Z,2.23
2017-09-05T23:37:57.789Z,1.30
2017-09-05T23:40:26.137Z,2.63
2017-09-05T23:42:54.400Z,2.20
2017-09-05T23:45:23.628Z,2.03
2017-09-05T23:47:51.968Z,1.90
2017-09-05T23:50:20.224Z,2.10
2017-09-05T23:52:48.514Z,1.77
2017-09-05T23:55:16.795Z,2.00
2017-09-05T23:57:46.030Z,1.97
